sensor_id;sensor_type;location;lat;lon;timestamp;pressure;altitude;pressure_sealevel;temperature;humidity
6216;BME280;3141;49.234;9.326;2023-07-31T00:00:34;99644.25;;;21.31;55.75
6216;BME280;3141;49.234;9.326;2023-07-31T00:01:17;99654.88;;;21.26;56.00
6216;BME280;3141;49.234;9.326;2023-07-31T00:01:59;99657.72;;;21.31;55.74
6216;BME280;3141;49.234;9.326;2023-07-31T00:02:41;99645.75;;;21.27;56.17
6216;BME280;3141;49.234;9.326;2023-07-31T00:03:24;99642.09;;;21.21;56.11
6216;BME280;3141;49.234;9.326;2023-07-31T00:04:06;99647.69;;;21.20;56.07
6216;BME280;3141;49.234;9.326;2023-07-31T00:04:48;99643.28;;;21.25;56.52
6216;BME280;3141;49.234;9.326;2023-07-31T00:05:31;99641.81;;;21.29;56.13
6216;BME280;3141;49.234;9.326;2023-07-31T00:06:13;99642.31;;;21.20;56.16
6216;BME280;3141;49.234;9.326;2023-07-31T00:06:55;99649.94;;;21.23;56.21
6216;BME280;3141;49.234;9.326;2023-07-31T00:07:38;99645.00;;;21.20;56.15
6216;BME280;3141;49.234;9.326;2023-07-31T00:08:20;99639.09;;;21.11;56.20
6216;BME280;3141;49.234;9.326;2023-07-31T00:09:02;99648.28;;;21.22;56.21
6216;BME280;3141;49.234;9.326;2023-07-31T00:09:45;99647.09;;;21.18;56.54
6216;BME280;3141;49.234;9.326;2023-07-31T00:10:27;99647.53;;;21.15;56.39
6216;BME280;3141;49.234;9.326;2023-07-31T00:11:09;99643.59;;;21.17;56.46
6216;BME280;3141;49.234;9.326;2023-07-31T00:11:52;99638.81;;;21.19;56.63
6216;BME280;3141;49.234;9.326;2023-07-31T00:12:34;99642.53;;;21.18;56.29
6216;BME280;3141;49.234;9.326;2023-07-31T00:13:16;99635.22;;;21.07;56.20
6216;BME280;3141;49.234;9.326;2023-07-31T00:13:58;99633.50;;;21.13;56.49
6216;BME280;3141;49.234;9.326;2023-07-31T00:14:41;99633.59;;;21.06;56.47
6216;BME280;3141;49.234;9.326;2023-07-31T00:15:23;99631.19;;;21.16;56.31
6216;BME280;3141;49.234;9.326;2023-07-31T00:16:05;99635.09;;;21.20;56.20
6216;BME280;3141;49.234;9.326;2023-07-31T00:16:48;99627.53;;;21.11;56.40
6216;BME280;3141;49.234;9.326;2023-07-31T00:17:30;99632.03;;;21.17;56.31
6216;BME280;3141;49.234;9.326;2023-07-31T00:18:12;99634.25;;;21.20;56.42
6216;BME280;3141;49.234;9.326;2023-07-31T00:18:55;99632.91;;;21.29;56.31
6216;BME280;3141;49.234;9.326;2023-07-31T00:19:37;99630.06;;;21.24;56.83
6216;BME280;3141;49.234;9.326;2023-07-31T00:20:19;99634.16;;;21.26;56.44
6216;BME280;3141;49.234;9.326;2023-07-31T00:21:02;99625.59;;;21.18;56.09
6216;BME280;3141;49.234;9.326;2023-07-31T00:21:44;99636.72;;;21.21;56.21
6216;BME280;3141;49.234;9.326;2023-07-31T00:22:26;99634.03;;;21.21;56.28
6216;BME280;3141;49.234;9.326;2023-07-31T00:23:09;99639.41;;;21.21;56.28
6216;BME280;3141;49.234;9.326;2023-07-31T00:23:51;99638.59;;;21.21;56.01
6216;BME280;3141;49.234;9.326;2023-07-31T00:24:33;99640.91;;;21.17;56.83
6216;BME280;3141;49.234;9.326;2023-07-31T00:25:16;99633.50;;;21.13;56.80
6216;BME280;3141;49.234;9.326;2023-07-31T00:25:58;99635.09;;;21.20;56.41
6216;BME280;3141;49.234;9.326;2023-07-31T00:26:40;99629.84;;;21.25;56.02
6216;BME280;3141;49.234;9.326;2023-07-31T00:27:23;99630.53;;;21.21;56.23
6216;BME280;3141;49.234;9.326;2023-07-31T00:28:05;99634.25;;;21.20;56.18
6216;BME280;3141;49.234;9.326;2023-07-31T00:28:47;99630.53;;;21.21;56.16
6216;BME280;3141;49.234;9.326;2023-07-31T00:29:30;99633.78;;;21.23;56.27
6216;BME280;3141;49.234;9.326;2023-07-31T00:30:12;99627.97;;;21.08;56.27
6216;BME280;3141;49.234;9.326;2023-07-31T00:31:04;99634.84;;;21.04;56.33
6216;BME280;3141;49.234;9.326;2023-07-31T00:31:46;99636.97;;;21.02;56.18
6216;BME280;3141;49.234;9.326;2023-07-31T00:32:28;99629.41;;;21.10;55.82
6216;BME280;3141;49.234;9.326;2023-07-31T00:33:11;99637.72;;;21.09;56.37
6216;BME280;3141;49.234;9.326;2023-07-31T00:33:53;99632.53;;;21.07;56.14
6216;BME280;3141;49.234;9.326;2023-07-31T00:34:35;99629.28;;;21.05;56.34
6216;BME280;3141;49.234;9.326;2023-07-31T00:35:18;99638.06;;;21.12;56.04
6216;BME280;3141;49.234;9.326;2023-07-31T00:36:00;99636.66;;;21.10;56.39
6216;BME280;3141;49.234;9.326;2023-07-31T00:36:42;99636.97;;;21.02;55.92
6216;BME280;3141;49.234;9.326;2023-07-31T00:37:25;99637.75;;;21.02;56.29
6216;BME280;3141;49.234;9.326;2023-07-31T00:38:07;99641.88;;;21.05;56.09
6216;BME280;3141;49.234;9.326;2023-07-31T00:38:49;99637.75;;;21.02;56.00
6216;BME280;3141;49.234;9.326;2023-07-31T00:39:33;99637.25;;;21.12;56.04
6216;BME280;3141;49.234;9.326;2023-07-31T00:40:16;99640.53;;;21.14;55.70
6216;BME280;3141;49.234;9.326;2023-07-31T00:40:58;99639.88;;;20.94;55.82
6216;BME280;3141;49.234;9.326;2023-07-31T00:41:41;99638.59;;;21.03;56.18
6216;BME280;3141;49.234;9.326;2023-07-31T00:42:24;99635.50;;;20.81;56.06
6216;BME280;3141;49.234;9.326;2023-07-31T00:43:06;99635.13;;;20.78;56.43
6216;BME280;3141;49.234;9.326;2023-07-31T00:43:49;99637.50;;;20.86;56.10
6216;BME280;3141;49.234;9.326;2023-07-31T00:44:31;99636.13;;;21.01;55.63
6216;BME280;3141;49.234;9.326;2023-07-31T00:45:14;99627.84;;;21.03;55.63
6216;BME280;3141;49.234;9.326;2023-07-31T00:45:56;99634.47;;;21.00;55.77
6216;BME280;3141;49.234;9.326;2023-07-31T00:46:39;99625.69;;;20.87;55.94
6216;BME280;3141;49.234;9.326;2023-07-31T00:47:21;99630.44;;;20.91;55.92
6216;BME280;3141;49.234;9.326;2023-07-31T00:48:04;99628.53;;;20.98;55.89
6216;BME280;3141;49.234;9.326;2023-07-31T00:48:48;99628.34;;;20.93;55.83
6216;BME280;3141;49.234;9.326;2023-07-31T00:49:31;99629.84;;;21.07;55.51
6216;BME280;3141;49.234;9.326;2023-07-31T00:50:14;99628.28;;;21.18;55.17
6216;BME280;3141;49.234;9.326;2023-07-31T00:50:56;99628.88;;;21.20;55.26
6216;BME280;3141;49.234;9.326;2023-07-31T00:51:39;99634.72;;;21.17;55.22
6216;BME280;3141;49.234;9.326;2023-07-31T00:52:21;99628.66;;;21.21;55.26
6216;BME280;3141;49.234;9.326;2023-07-31T00:53:04;99629.69;;;21.20;55.26
6216;BME280;3141;49.234;9.326;2023-07-31T00:53:47;99636.34;;;21.18;55.42
6216;BME280;3141;49.234;9.326;2023-07-31T00:54:29;99627.28;;;21.12;55.40
6216;BME280;3141;49.234;9.326;2023-07-31T00:55:11;99621.59;;;21.09;55.44
6216;BME280;3141;49.234;9.326;2023-07-31T00:55:54;99625.66;;;21.11;55.76
6216;BME280;3141;49.234;9.326;2023-07-31T00:56:36;99626.59;;;21.05;55.84
6216;BME280;3141;49.234;9.326;2023-07-31T00:57:19;99628.91;;;21.02;55.58
6216;BME280;3141;49.234;9.326;2023-07-31T00:58:02;99624.53;;;21.01;55.71
6216;BME280;3141;49.234;9.326;2023-07-31T00:58:44;99625.84;;;20.98;55.61
6216;BME280;3141;49.234;9.326;2023-07-31T00:59:26;99625.59;;;21.00;55.57
6216;BME280;3141;49.234;9.326;2023-07-31T01:00:09;99624.06;;;20.86;55.98
6216;BME280;3141;49.234;9.326;2023-07-31T01:00:52;99620.84;;;21.02;55.69
6216;BME280;3141;49.234;9.326;2023-07-31T01:01:34;99624.38;;;20.96;55.94
6216;BME280;3141;49.234;9.326;2023-07-31T01:02:22;99620.03;;;20.95;55.99
6216;BME280;3141;49.234;9.326;2023-07-31T01:03:05;99612.97;;;21.00;55.83
6216;BME280;3141;49.234;9.326;2023-07-31T01:03:48;99619.22;;;20.94;55.82
6216;BME280;3141;49.234;9.326;2023-07-31T01:04:33;99620.47;;;20.92;56.39
6216;BME280;3141;49.234;9.326;2023-07-31T01:05:18;99616.91;;;20.98;55.95
6216;BME280;3141;49.234;9.326;2023-07-31T01:08:32;99611.38;;;20.93;56.39
6216;BME280;3141;49.234;9.326;2023-07-31T01:08:57;99614.22;;;20.98;56.00
6216;BME280;3141;49.234;9.326;2023-07-31T01:10:31;99611.75;;;20.96;56.06
6216;BME280;3141;49.234;9.326;2023-07-31T01:11:19;99615.88;;;20.99;55.96
6216;BME280;3141;49.234;9.326;2023-07-31T01:12:04;99614.84;;;21.00;55.85
6216;BME280;3141;49.234;9.326;2023-07-31T01:12:50;99616.53;;;20.94;56.22
6216;BME280;3141;49.234;9.326;2023-07-31T01:13:33;99616.91;;;20.98;56.13
6216;BME280;3141;49.234;9.326;2023-07-31T01:14:16;99614.22;;;20.98;56.18
6216;BME280;3141;49.234;9.326;2023-07-31T01:15:46;99614.69;;;20.95;56.18
6216;BME280;3141;49.234;9.326;2023-07-31T01:16:29;99615.56;;;20.89;56.44
6216;BME280;3141;49.234;9.326;2023-07-31T01:17:11;99604.06;;;20.82;56.80
6216;BME280;3141;49.234;9.326;2023-07-31T01:17:53;99604.50;;;20.79;56.42
6216;BME280;3141;49.234;9.326;2023-07-31T01:18:35;99610.84;;;20.84;56.60
6216;BME280;3141;49.234;9.326;2023-07-31T01:19:21;99612.63;;;20.90;56.55
6216;BME280;3141;49.234;9.326;2023-07-31T01:20:08;99603.41;;;20.86;56.68
6216;BME280;3141;49.234;9.326;2023-07-31T01:22:46;99598.44;;;20.83;56.96
6216;BME280;3141;49.234;9.326;2023-07-31T01:23:50;99596.81;;;20.82;56.76
6216;BME280;3141;49.234;9.326;2023-07-31T01:25:59;99599.50;;;20.82;56.77
6216;BME280;3141;49.234;9.326;2023-07-31T01:26:45;99593.31;;;20.63;57.03
6216;BME280;3141;49.234;9.326;2023-07-31T01:27:33;99601.75;;;20.67;56.96
6216;BME280;3141;49.234;9.326;2023-07-31T01:28:20;99595.38;;;20.61;57.02
6216;BME280;3141;49.234;9.326;2023-07-31T01:29:18;99596.00;;;20.63;56.95
6216;BME280;3141;49.234;9.326;2023-07-31T01:30:11;99596.75;;;20.71;56.59
6216;BME280;3141;49.234;9.326;2023-07-31T01:30:58;99594.06;;;20.71;56.53
6216;BME280;3141;49.234;9.326;2023-07-31T01:31:43;99588.63;;;20.77;56.37
6216;BME280;3141;49.234;9.326;2023-07-31T01:32:28;99592.31;;;20.76;56.53
6216;BME280;3141;49.234;9.326;2023-07-31T01:33:10;99589.63;;;20.76;56.94
6216;BME280;3141;49.234;9.326;2023-07-31T01:33:55;99591.38;;;20.71;56.83
6216;BME280;3141;49.234;9.326;2023-07-31T01:34:39;99588.09;;;20.68;56.89
6216;BME280;3141;49.234;9.326;2023-07-31T01:35:23;99587.94;;;20.63;57.26
6216;BME280;3141;49.234;9.326;2023-07-31T01:36:05;99581.06;;;20.67;57.04
6216;BME280;3141;49.234;9.326;2023-07-31T01:36:48;99581.13;;;20.61;56.99
6216;BME280;3141;49.234;9.326;2023-07-31T01:37:30;99584.78;;;20.66;57.28
6216;BME280;3141;49.234;9.326;2023-07-31T01:38:13;99584.66;;;20.61;58.07
6216;BME280;3141;49.234;9.326;2023-07-31T01:39:02;99581.13;;;20.61;58.16
6216;BME280;3141;49.234;9.326;2023-07-31T01:39:44;99579.63;;;20.47;58.40
6216;BME280;3141;49.234;9.326;2023-07-31T01:40:26;99582.06;;;20.48;57.92
6216;BME280;3141;49.234;9.326;2023-07-31T01:41:09;99586.94;;;20.58;57.61
6216;BME280;3141;49.234;9.326;2023-07-31T01:41:51;99577.91;;;20.52;58.26
6216;BME280;3141;49.234;9.326;2023-07-31T01:42:33;99577.84;;;20.59;58.08
6216;BME280;3141;49.234;9.326;2023-07-31T01:43:16;99585.97;;;20.52;57.72
6216;BME280;3141;49.234;9.326;2023-07-31T01:43:58;99588.00;;;20.57;57.63
6216;BME280;3141;49.234;9.326;2023-07-31T01:44:40;99575.75;;;20.43;57.54
6216;BME280;3141;49.234;9.326;2023-07-31T01:45:23;99579.63;;;20.47;57.76
6216;BME280;3141;49.234;9.326;2023-07-31T01:46:05;99578.53;;;20.54;57.66
6216;BME280;3141;49.234;9.326;2023-07-31T01:46:47;99575.22;;;20.52;57.55
6216;BME280;3141;49.234;9.326;2023-07-31T01:47:30;99578.66;;;20.59;57.24
6216;BME280;3141;49.234;9.326;2023-07-31T01:48:12;99576.81;;;20.60;57.19
6216;BME280;3141;49.234;9.326;2023-07-31T01:48:54;99580.53;;;20.59;57.30
6216;BME280;3141;49.234;9.326;2023-07-31T01:49:37;99577.84;;;20.59;57.77
6216;BME280;3141;49.234;9.326;2023-07-31T01:50:19;99574.34;;;20.58;57.72
6216;BME280;3141;49.234;9.326;2023-07-31T01:51:02;99574.94;;;20.60;57.63
6216;BME280;3141;49.234;9.326;2023-07-31T01:51:44;99580.09;;;20.62;57.58
6216;BME280;3141;49.234;9.326;2023-07-31T01:52:26;99580.09;;;20.62;57.85
6216;BME280;3141;49.234;9.326;2023-07-31T01:53:09;99572.47;;;20.59;57.64
6216;BME280;3141;49.234;9.326;2023-07-31T01:53:51;99580.16;;;20.55;57.88
6216;BME280;3141;49.234;9.326;2023-07-31T01:54:33;99578.06;;;20.39;58.68
6216;BME280;3141;49.234;9.326;2023-07-31T01:55:16;99578.22;;;20.44;58.76
6216;BME280;3141;49.234;9.326;2023-07-31T01:55:58;99575.97;;;20.41;58.57
6216;BME280;3141;49.234;9.326;2023-07-31T01:56:41;99579.47;;;20.42;58.58
6216;BME280;3141;49.234;9.326;2023-07-31T01:57:23;99577.38;;;20.44;58.62
6216;BME280;3141;49.234;9.326;2023-07-31T01:58:05;99568.94;;;20.40;58.77
6216;BME280;3141;49.234;9.326;2023-07-31T01:58:48;99583.84;;;20.36;59.10
6216;BME280;3141;49.234;9.326;2023-07-31T01:59:30;99580.13;;;20.37;59.15
6216;BME280;3141;49.234;9.326;2023-07-31T02:00:12;99576.09;;;20.28;59.63
6216;BME280;3141;49.234;9.326;2023-07-31T02:00:55;99574.00;;;20.30;59.33
6216;BME280;3141;49.234;9.326;2023-07-31T02:01:37;99578.75;;;20.28;59.60
6216;BME280;3141;49.234;9.326;2023-07-31T02:02:20;99576.31;;;20.27;59.37
6216;BME280;3141;49.234;9.326;2023-07-31T02:03:02;99576.97;;;20.22;59.73
6216;BME280;3141;49.234;9.326;2023-07-31T02:03:45;99569.13;;;20.21;59.66
6216;BME280;3141;49.234;9.326;2023-07-31T02:04:27;99568.69;;;20.24;59.68
6216;BME280;3141;49.234;9.326;2023-07-31T02:05:09;99567.41;;;20.26;59.91
6216;BME280;3141;49.234;9.326;2023-07-31T02:05:53;99567.88;;;20.23;59.70
6216;BME280;3141;49.234;9.326;2023-07-31T02:06:36;99571.66;;;20.16;59.81
6216;BME280;3141;49.234;9.326;2023-07-31T02:07:19;99570.19;;;20.13;59.92
6216;BME280;3141;49.234;9.326;2023-07-31T02:08:01;99569.94;;;20.21;59.60
6216;BME280;3141;49.234;9.326;2023-07-31T02:08:43;99564.56;;;20.21;60.09
6216;BME280;3141;49.234;9.326;2023-07-31T02:09:26;99569.50;;;20.24;60.15
6216;BME280;3141;49.234;9.326;2023-07-31T02:10:08;99566.81;;;20.24;60.13
6216;BME280;3141;49.234;9.326;2023-07-31T02:10:51;99567.09;;;20.16;60.32
6216;BME280;3141;49.234;9.326;2023-07-31T02:11:33;99567.53;;;20.13;60.47
6216;BME280;3141;49.234;9.326;2023-07-31T02:12:16;99561.09;;;20.14;60.10
6216;BME280;3141;49.234;9.326;2023-07-31T02:12:59;99559.47;;;20.13;59.81
6216;BME280;3141;49.234;9.326;2023-07-31T02:13:41;99560.50;;;20.12;60.27
6216;BME280;3141;49.234;9.326;2023-07-31T02:14:23;99560.34;;;20.07;60.57
6216;BME280;3141;49.234;9.326;2023-07-31T02:15:06;99558.09;;;20.04;60.66
6216;BME280;3141;49.234;9.326;2023-07-31T02:15:49;99559.72;;;20.05;60.90
6216;BME280;3141;49.234;9.326;2023-07-31T02:16:32;99563.84;;;20.08;61.23
6216;BME280;3141;49.234;9.326;2023-07-31T02:17:14;99556.31;;;19.98;62.06
6216;BME280;3141;49.234;9.326;2023-07-31T02:17:57;99558.09;;;20.04;61.21
6216;BME280;3141;49.234;9.326;2023-07-31T02:18:39;99561.84;;;20.03;61.21
6216;BME280;3141;49.234;9.326;2023-07-31T02:19:21;99562.25;;;20.00;61.47
6216;BME280;3141;49.234;9.326;2023-07-31T02:20:04;99560.06;;;19.91;61.76
6216;BME280;3141;49.234;9.326;2023-07-31T02:20:50;99550.16;;;19.91;61.69
6216;BME280;3141;49.234;9.326;2023-07-31T02:21:33;99556.78;;;19.89;61.68
6216;BME280;3141;49.234;9.326;2023-07-31T02:22:15;99556.44;;;19.79;62.25
6216;BME280;3141;49.234;9.326;2023-07-31T02:22:57;99551.91;;;19.79;62.18
6216;BME280;3141;49.234;9.326;2023-07-31T02:23:40;99557.84;;;19.81;62.25
6216;BME280;3141;49.234;9.326;2023-07-31T02:24:23;99555.38;;;19.80;62.12
6216;BME280;3141;49.234;9.326;2023-07-31T02:25:06;99561.59;;;19.80;62.10
6216;BME280;3141;49.234;9.326;2023-07-31T02:25:48;99559.25;;;19.90;62.01
6216;BME280;3141;49.234;9.326;2023-07-31T02:26:30;99555.38;;;19.86;62.56
6216;BME280;3141;49.234;9.326;2023-07-31T02:27:13;99555.72;;;19.90;62.25
6216;BME280;3141;49.234;9.326;2023-07-31T02:27:55;99545.22;;;19.88;62.06
6216;BME280;3141;49.234;9.326;2023-07-31T02:28:38;99541.75;;;19.81;62.33
6216;BME280;3141;49.234;9.326;2023-07-31T02:29:20;99558.06;;;19.86;62.26
6216;BME280;3141;49.234;9.326;2023-07-31T02:30:02;99548.41;;;19.79;62.26
6216;BME280;3141;49.234;9.326;2023-07-31T02:30:45;99548.41;;;19.79;62.33
6216;BME280;3141;49.234;9.326;2023-07-31T02:31:30;99546.72;;;19.84;62.54
6216;BME280;3141;49.234;9.326;2023-07-31T02:32:12;99548.78;;;19.82;62.41
6216;BME280;3141;49.234;9.326;2023-07-31T02:32:55;99547.56;;;19.78;62.82
6216;BME280;3141;49.234;9.326;2023-07-31T02:33:37;99544.06;;;19.78;62.69
6216;BME280;3141;49.234;9.326;2023-07-31T02:34:19;99548.78;;;19.82;62.58
6216;BME280;3141;49.234;9.326;2023-07-31T02:35:04;99546.94;;;19.83;62.48
6216;BME280;3141;49.234;9.326;2023-07-31T02:35:47;99547.31;;;19.86;62.89
6216;BME280;3141;49.234;9.326;2023-07-31T02:36:29;99546.50;;;19.86;62.87
6216;BME280;3141;49.234;9.326;2023-07-31T02:37:12;99547.50;;;19.85;62.98
6216;BME280;3141;49.234;9.326;2023-07-31T02:37:54;99545.44;;;19.87;63.67
6216;BME280;3141;49.234;9.326;2023-07-31T02:38:36;99550.00;;;19.86;63.98
6216;BME280;3141;49.234;9.326;2023-07-31T02:39:19;99544.81;;;19.85;63.95
6216;BME280;3141;49.234;9.326;2023-07-31T02:40:01;99543.41;;;19.82;64.00
6216;BME280;3141;49.234;9.326;2023-07-31T02:40:44;99541.97;;;19.80;63.97
6216;BME280;3141;49.234;9.326;2023-07-31T02:41:26;99539.06;;;19.81;63.89
6216;BME280;3141;49.234;9.326;2023-07-31T02:42:08;99541.13;;;19.86;63.72
6216;BME280;3141;49.234;9.326;2023-07-31T02:42:51;99540.06;;;19.87;63.84
6216;BME280;3141;49.234;9.326;2023-07-31T02:43:33;99537.38;;;19.87;63.84
6216;BME280;3141;49.234;9.326;2023-07-31T02:44:15;99541.97;;;19.86;64.02
6216;BME280;3141;49.234;9.326;2023-07-31T02:44:58;99542.38;;;19.83;64.00
6216;BME280;3141;49.234;9.326;2023-07-31T02:45:40;99538.28;;;19.81;64.03
6216;BME280;3141;49.234;9.326;2023-07-31T02:46:22;99540.56;;;19.77;63.65
6216;BME280;3141;49.234;9.326;2023-07-31T02:47:06;99543.47;;;19.76;64.68
6216;BME280;3141;49.234;9.326;2023-07-31T02:47:49;99542.66;;;19.75;64.34
6216;BME280;3141;49.234;9.326;2023-07-31T02:48:31;99538.06;;;19.82;64.68
6216;BME280;3141;49.234;9.326;2023-07-31T02:49:14;99542.97;;;19.85;64.19
6216;BME280;3141;49.234;9.326;2023-07-31T02:49:56;99546.28;;;19.87;63.84
6216;BME280;3141;49.234;9.326;2023-07-31T02:50:38;99538.22;;;19.87;64.24
6216;BME280;3141;49.234;9.326;2023-07-31T02:51:21;99541.19;;;19.79;65.10
6216;BME280;3141;49.234;9.326;2023-07-31T02:52:03;99545.50;;;19.80;64.97
6216;BME280;3141;49.234;9.326;2023-07-31T02:52:46;99543.47;;;19.76;64.77
6216;BME280;3141;49.234;9.326;2023-07-31T02:53:28;99541.59;;;19.76;64.97
6216;BME280;3141;49.234;9.326;2023-07-31T02:54:10;99540.75;;;19.82;64.18
6216;BME280;3141;49.234;9.326;2023-07-31T02:54:53;99540.97;;;19.81;63.89
6216;BME280;3141;49.234;9.326;2023-07-31T02:55:35;99548.41;;;19.79;64.35
6216;BME280;3141;49.234;9.326;2023-07-31T02:56:17;99546.94;;;19.83;64.39
6216;BME280;3141;49.234;9.326;2023-07-31T02:57:00;99540.75;;;19.82;64.80
6216;BME280;3141;49.234;9.326;2023-07-31T02:57:42;99541.97;;;19.86;64.32
6216;BME280;3141;49.234;9.326;2023-07-31T02:58:24;99538.44;;;19.86;64.38
6216;BME280;3141;49.234;9.326;2023-07-31T02:59:06;99537.38;;;19.87;64.15
6216;BME280;3141;49.234;9.326;2023-07-31T02:59:49;99536.59;;;19.86;64.07
6216;BME280;3141;49.234;9.326;2023-07-31T03:00:31;99535.38;;;19.82;63.81
6216;BME280;3141;49.234;9.326;2023-07-31T03:01:13;99529.78;;;19.84;63.64
6216;BME280;3141;49.234;9.326;2023-07-31T03:01:56;99530.78;;;19.89;63.48
6216;BME280;3141;49.234;9.326;2023-07-31T03:02:38;99534.47;;;19.88;63.45
6216;BME280;3141;49.234;9.326;2023-07-31T03:03:21;99535.97;;;19.84;63.80
6216;BME280;3141;49.234;9.326;2023-07-31T03:04:03;99534.31;;;19.83;63.19
6216;BME280;3141;49.234;9.326;2023-07-31T03:04:46;99535.81;;;19.79;63.75
6216;BME280;3141;49.234;9.326;2023-07-31T03:05:28;99530.88;;;19.76;64.01
6216;BME280;3141;49.234;9.326;2023-07-31T03:06:10;99531.63;;;19.83;63.67
6216;BME280;3141;49.234;9.326;2023-07-31T03:06:52;99532.25;;;19.85;63.99
6216;BME280;3141;49.234;9.326;2023-07-31T03:07:35;99545.22;;;19.88;64.15
6216;BME280;3141;49.234;9.326;2023-07-31T03:08:17;99537.16;;;19.88;64.23
6216;BME280;3141;49.234;9.326;2023-07-31T03:09:00;99543.75;;;19.92;64.04
6216;BME280;3141;49.234;9.326;2023-07-31T03:09:43;99533.53;;;19.83;64.35
6216;BME280;3141;49.234;9.326;2023-07-31T03:10:25;99535.81;;;19.79;64.76
6216;BME280;3141;49.234;9.326;2023-07-31T03:11:07;99533.72;;;19.81;65.04
6216;BME280;3141;49.234;9.326;2023-07-31T03:11:49;99541.34;;;19.84;64.84
6216;BME280;3141;49.234;9.326;2023-07-31T03:12:32;99532.25;;;19.85;64.86
6216;BME280;3141;49.234;9.326;2023-07-31T03:13:14;99535.22;;;19.77;65.41
6216;BME280;3141;49.234;9.326;2023-07-31T03:13:56;99538.28;;;19.81;65.34
6216;BME280;3141;49.234;9.326;2023-07-31T03:14:39;99527.84;;;19.66;65.62
6216;BME280;3141;49.234;9.326;2023-07-31T03:15:21;99531.47;;;19.78;65.51
6216;BME280;3141;49.234;9.326;2023-07-31T03:16:03;99531.47;;;19.78;65.84
6216;BME280;3141;49.234;9.326;2023-07-31T03:16:46;99534.38;;;19.77;65.47
6216;BME280;3141;49.234;9.326;2023-07-31T03:17:28;99530.28;;;19.74;66.07
6216;BME280;3141;49.234;9.326;2023-07-31T03:18:10;99534.81;;;19.74;65.31
6216;BME280;3141;49.234;9.326;2023-07-31T03:18:54;99539.28;;;19.80;65.28
6216;BME280;3141;49.234;9.326;2023-07-31T03:19:36;99532.69;;;19.82;65.08
6216;BME280;3141;49.234;9.326;2023-07-31T03:20:18;99535.38;;;19.82;64.74
6216;BME280;3141;49.234;9.326;2023-07-31T03:21:00;99540.97;;;19.81;64.52
6216;BME280;3141;49.234;9.326;2023-07-31T03:21:43;99538.75;;;19.71;64.32
6216;BME280;3141;49.234;9.326;2023-07-31T03:22:25;99539.53;;;19.78;63.51
6216;BME280;3141;49.234;9.326;2023-07-31T03:23:07;99534.31;;;19.83;63.48
6216;BME280;3141;49.234;9.326;2023-07-31T03:23:50;99538.00;;;19.89;63.53
6216;BME280;3141;49.234;9.326;2023-07-31T03:24:32;99536.94;;;19.90;63.35
6216;BME280;3141;49.234;9.326;2023-07-31T03:25:14;99537.16;;;19.88;62.97
6216;BME280;3141;49.234;9.326;2023-07-31T03:26:02;99541.28;;;19.91;62.97
6216;BME280;3141;49.234;9.326;2023-07-31T03:26:47;99535.84;;;19.97;62.84
6216;BME280;3141;49.234;9.326;2023-07-31T03:27:30;99538.31;;;19.99;62.52
6216;BME280;3141;49.234;9.326;2023-07-31T03:28:12;99543.69;;;19.99;62.95
6216;BME280;3141;49.234;9.326;2023-07-31T03:28:54;99537.06;;;20.01;62.37
6216;BME280;3141;49.234;9.326;2023-07-31T03:29:37;99540.38;;;20.03;61.70
6216;BME280;3141;49.234;9.326;2023-07-31T03:30:19;99543.06;;;19.97;61.94
6216;BME280;3141;49.234;9.326;2023-07-31T03:31:01;99543.28;;;20.02;62.26
6216;BME280;3141;49.234;9.326;2023-07-31T03:31:44;99537.91;;;20.02;61.99
6216;BME280;3141;49.234;9.326;2023-07-31T03:32:26;99541.84;;;19.99;62.30
6216;BME280;3141;49.234;9.326;2023-07-31T03:33:08;99537.16;;;19.88;61.89
6216;BME280;3141;49.234;9.326;2023-07-31T03:33:51;99534.72;;;19.87;62.20
6216;BME280;3141;49.234;9.326;2023-07-31T03:34:33;99533.84;;;19.93;62.08
6216;BME280;3141;49.234;9.326;2023-07-31T03:35:16;99531.53;;;19.96;61.94
6216;BME280;3141;49.234;9.326;2023-07-31T03:35:58;99534.38;;;20.01;61.87
6216;BME280;3141;49.234;9.326;2023-07-31T03:36:40;99531.31;;;19.98;62.18
6216;BME280;3141;49.234;9.326;2023-07-31T03:37:23;99533.34;;;20.02;62.18
6216;BME280;3141;49.234;9.326;2023-07-31T03:38:05;99528.56;;;20.04;62.22
6216;BME280;3141;49.234;9.326;2023-07-31T03:38:47;99536.41;;;20.06;62.10
6216;BME280;3141;49.234;9.326;2023-07-31T03:39:30;99531.47;;;20.03;62.02
6216;BME280;3141;49.234;9.326;2023-07-31T03:40:12;99539.97;;;20.00;61.76
6216;BME280;3141;49.234;9.326;2023-07-31T03:40:54;99541.31;;;20.09;61.58
6216;BME280;3141;49.234;9.326;2023-07-31T03:41:37;99541.38;;;20.02;61.62
6216;BME280;3141;49.234;9.326;2023-07-31T03:42:19;99541.78;;;20.06;62.07
6216;BME280;3141;49.234;9.326;2023-07-31T03:43:01;99544.84;;;20.09;62.00
6216;BME280;3141;49.234;9.326;2023-07-31T03:43:46;99543.28;;;20.02;61.91
6216;BME280;3141;49.234;9.326;2023-07-31T03:44:28;99547.28;;;20.11;61.37
6216;BME280;3141;49.234;9.326;2023-07-31T03:45:10;99540.38;;;20.03;62.27
6216;BME280;3141;49.234;9.326;2023-07-31T03:45:53;99538.44;;;20.10;62.03
6216;BME280;3141;49.234;9.326;2023-07-31T03:46:35;99535.94;;;20.09;61.72
6216;BME280;3141;49.234;9.326;2023-07-31T03:47:18;99537.91;;;20.02;61.70
6216;BME280;3141;49.234;9.326;2023-07-31T03:48:00;99535.84;;;19.97;61.49
6216;BME280;3141;49.234;9.326;2023-07-31T03:48:43;99522.91;;;20.12;61.12
6216;BME280;3141;49.234;9.326;2023-07-31T03:49:25;99532.72;;;20.00;61.24
6216;BME280;3141;49.234;9.326;2023-07-31T03:50:07;99527.03;;;20.15;61.09
6216;BME280;3141;49.234;9.326;2023-07-31T03:50:50;99530.50;;;20.22;61.24
6216;BME280;3141;49.234;9.326;2023-07-31T03:51:32;99532.38;;;20.21;60.42
6216;BME280;3141;49.234;9.326;2023-07-31T03:52:14;99531.34;;;20.22;60.77
6216;BME280;3141;49.234;9.326;2023-07-31T03:52:57;99530.34;;;20.17;60.85
6216;BME280;3141;49.234;9.326;2023-07-31T03:53:39;99537.75;;;20.21;60.68
6216;BME280;3141;49.234;9.326;2023-07-31T03:54:21;99535.66;;;20.23;60.65
6216;BME280;3141;49.234;9.326;2023-07-31T03:55:04;99530.50;;;20.22;61.17
6216;BME280;3141;49.234;9.326;2023-07-31T03:55:46;99536.50;;;20.24;60.77
6216;BME280;3141;49.234;9.326;2023-07-31T03:56:29;99530.66;;;20.27;60.60
6216;BME280;3141;49.234;9.326;2023-07-31T03:57:11;99533.13;;;20.28;60.54
6216;BME280;3141;49.234;9.326;2023-07-31T03:57:53;99533.56;;;20.25;60.89
6216;BME280;3141;49.234;9.326;2023-07-31T03:58:36;99532.41;;;20.15;61.07
6216;BME280;3141;49.234;9.326;2023-07-31T03:59:18;99531.16;;;20.17;60.71
6216;BME280;3141;49.234;9.326;2023-07-31T04:00:01;99526.66;;;20.11;60.67
6216;BME280;3141;49.234;9.326;2023-07-31T04:00:43;99531.16;;;20.17;60.68